This is the latest recevied weather packets stored in our database for station/object HS1IFU-13. If no packets are shown the sender has not sent any weather packets the latest 10 day(s).
| Time | Temp. | Humidity | Pressure | Rain* | Wind** | Luminosity | Snow |
|---|---|---|---|---|---|---|---|
| 1778258803 | 28.33° C | 83% | 1010 hPa | - | - | 0 W/m² | - |
| 1778257574 | 28.33° C | 81% | 1010 hPa | - | - | 0 W/m² | - |
| 1778257356 | 28.33° C | 81% | 1010 hPa | - | - | 0 W/m² | - |
| 1778256316 | 28.33° C | 81% | 1010 hPa | - | - | 0 W/m² | - |
| 1778255070 | 27.78° C | 79% | 1010 hPa | - | - | 0 W/m² | - |
| 1778254270 | 28.33° C | 80% | 1010 hPa | - | - | 0 W/m² | - |
| 1778252534 | 27.78° C | 58% | 1010 hPa | - | - | 0 W/m² | - |
| 1778251838 | 27.22° C | 71% | 1010 hPa | - | - | 0 W/m² | - |
| 1778251157 | 27.78° C | 76% | 1010 hPa | - | - | 0 W/m² | - |
| 1778250460 | 27.78° C | 64% | 1010 hPa | - | - | 0 W/m² | - |
| 1778250243 | 27.78° C | 75% | 1010 hPa | - | - | 0 W/m² | - |
| 1778250025 | 27.22° C | 72% | 1010 hPa | - | - | 0 W/m² | - |
| 1778247295 | 26.11° C | 69% | 1010 hPa | - | - | 0 W/m² | - |
| 1778244540 | 24.44° C | 43% | 1009 hPa | - | - | 0 W/m² | - |
| 1778243682 | 24.44° C | 44% | 1009 hPa | - | - | 0 W/m² | - |
| 1778243491 | 24.44° C | 45% | 1009 hPa | - | - | 0 W/m² | - |
| 1778243275 | 23.89° C | 47% | 1009 hPa | - | - | 0 W/m² | - |
| 1778179405 | 27.78° C | 67% | 1008 hPa | - | - | 0 W/m² | - |
| 1778176697 | 28.33° C | 60% | 1008 hPa | - | - | 0 W/m² | - |
| 1778176401 | 28.89° C | 83% | 1008 hPa | - | - | 0 W/m² | - |
| 1778174841 | 28.33° C | 82% | 1008 hPa | - | - | 0 W/m² | - |
| 1778173853 | 26.67° C | 74% | 1008 hPa | - | - | 0 W/m² | - |
| 1778173656 | 26.67° C | 67% | 1008 hPa | - | - | 0 W/m² | - |
| 1778173035 | 27.78° C | 80% | 1008 hPa | - | - | 0 W/m² | - |
| 1778172658 | 26.67° C | 74% | 1008 hPa | - | - | 0 W/m² | - |
* Rain since midnight (hover to see other rain measurements)
** Current wind speed in m/s (hover to see current wind gust speed)